Time;durP1;ratioP1;P1;durP2;ratioP2;P2;SDS_P1;SDS_P2;PMS_P1;PMS_P2;Temp;Humidity;BMP_temperature;BMP_pressure;BME280_temperature;BME280_humidity;BME280_pressure;Samples;Min_cycle;Max_cycle;Signal;HPM_P1;HPM_P2
2023/01/02 00:00:21;;;;;;;1.83;0.55;;;;;;;6.28;100.00;100262.84;5014488;28;20450;-49
2023/01/02 00:02:46;;;;;;;6.50;0.95;;;;;;;6.28;100.00;100268.09;5009779;28;20057;-51
2023/01/02 00:05:12;;;;;;;0.63;0.55;;;;;;;6.25;100.00;100270.25;5007829;28;20048;-51
2023/01/02 00:07:37;;;;;;;2.22;0.68;;;;;;;6.22;100.00;100266.16;5011915;28;20036;-50
2023/01/02 00:10:03;;;;;;;3.10;1.05;;;;;;;6.18;100.00;100259.56;5014417;28;20095;-48
2023/01/02 00:12:29;;;;;;;1.95;0.38;;;;;;;6.11;100.00;100255.94;5010383;28;20030;-53
2023/01/02 00:14:54;;;;;;;3.17;1.05;;;;;;;6.10;100.00;100254.31;5012001;28;20034;-50
2023/01/02 00:17:19;;;;;;;3.40;0.88;;;;;;;6.07;100.00;100250.22;5019203;28;20029;-50
2023/01/02 00:19:45;;;;;;;0.25;0.15;;;;;;;6.07;100.00;100255.47;5017374;28;20082;-51
2023/01/02 00:22:10;;;;;;;5.50;0.60;;;;;;;6.04;100.00;100262.88;5007537;28;20042;-49
2023/01/02 00:24:36;;;;;;;1.67;1.40;;;;;;;6.06;100.00;100263.53;5012324;28;20029;-48
2023/01/02 00:27:01;;;;;;;3.15;0.40;;;;;;;6.04;100.00;100257.59;5013003;28;20021;-49
2023/01/02 00:29:26;;;;;;;5.32;1.77;;;;;;;5.99;100.00;100255.50;5012718;28;20033;-49
2023/01/02 00:31:52;;;;;;;4.65;1.17;;;;;;;5.96;100.00;100252.34;5012845;28;20018;-53
2023/01/02 00:34:17;;;;;;;3.40;0.85;;;;;;;5.89;100.00;100247.72;5010162;28;20024;-49
2023/01/02 00:36:42;;;;;;;3.10;1.52;;;;;;;5.82;100.00;100249.38;5007307;28;20523;-52
2023/01/02 00:39:08;;;;;;;2.65;1.25;;;;;;;5.76;100.00;100242.16;5010720;28;20387;-50
2023/01/02 00:41:33;;;;;;;2.00;1.70;;;;;;;5.78;100.00;100255.13;5012124;28;20140;-51
2023/01/02 00:43:58;;;;;;;3.92;1.02;;;;;;;5.81;100.00;100258.28;5013298;28;20037;-49
2023/01/02 00:46:24;;;;;;;1.80;0.77;;;;;;;5.80;100.00;100261.88;5010067;28;20084;-50
2023/01/02 00:48:49;;;;;;;0.73;0.70;;;;;;;5.82;100.00;100259.91;5016913;28;20051;-51
2023/01/02 00:51:14;;;;;;;1.67;1.35;;;;;;;5.80;100.00;100259.25;5019505;28;20045;-52
2023/01/02 00:53:40;;;;;;;2.90;0.77;;;;;;;5.87;100.00;100268.13;5020740;28;20037;-48
2023/01/02 00:56:05;;;;;;;1.80;0.40;;;;;;;5.96;100.00;100263.69;5018526;28;20049;-48
2023/01/02 00:58:31;;;;;;;5.25;0.85;;;;;;;5.97;100.00;100269.81;5024484;28;20080;-54
2023/01/02 01:00:56;;;;;;;1.17;0.80;;;;;;;5.96;100.00;100278.66;5019688;28;20029;-51
2023/01/02 01:03:22;;;;;;;1.63;0.70;;;;;;;5.89;100.00;100274.03;5020118;28;20033;-49
2023/01/02 01:05:47;;;;;;;6.22;0.85;;;;;;;5.84;100.00;100286.88;5017351;28;20030;-48
2023/01/02 01:08:13;;;;;;;1.70;0.30;;;;;;;5.87;100.00;100281.28;5015970;28;20096;-50
2023/01/02 01:10:38;;;;;;;2.05;0.80;;;;;;;5.90;100.00;100288.84;5020072;28;20042;-48
2023/01/02 01:13:04;;;;;;;4.90;0.60;;;;;;;5.92;100.00;100286.06;5018166;28;20057;-51
2023/01/02 01:15:31;;;;;;;3.60;0.68;;;;;;;5.92;100.00;100282.59;5027004;28;20130;-52
2023/01/02 01:17:57;;;;;;;1.33;0.65;;;;;;;5.86;100.00;100279.66;5026693;28;20071;-50
2023/01/02 01:20:22;;;;;;;2.55;0.35;;;;;;;5.79;100.00;100283.09;5032177;28;20160;-52
2023/01/02 01:22:47;;;;;;;2.38;0.38;;;;;;;5.77;100.00;100291.16;5025241;28;20053;-54
2023/01/02 01:25:13;;;;;;;4.07;0.35;;;;;;;5.80;100.00;100300.53;5021693;28;20041;-49
2023/01/02 01:27:38;;;;;;;1.85;0.82;;;;;;;5.83;100.00;100300.19;5023498;28;20037;-51
2023/01/02 01:30:05;;;;;;;2.40;1.35;;;;;;;5.87;100.00;100306.78;5029431;28;20021;-53
2023/01/02 01:32:30;;;;;;;2.15;0.52;;;;;;;5.87;100.00;100312.84;5027495;28;20033;-49
2023/01/02 01:34:55;;;;;;;1.92;1.42;;;;;;;5.86;100.00;100313.84;5027939;28;20026;-51
2023/01/02 01:37:21;;;;;;;2.60;0.45;;;;;;;5.84;100.00;100312.38;5026567;28;20120;-52
2023/01/02 01:39:46;;;;;;;0.98;0.57;;;;;;;5.78;100.00;100313.00;5025757;28;20057;-52
2023/01/02 01:42:13;;;;;;;0.45;0.45;;;;;;;5.73;100.00;100310.06;5022791;28;20044;-51
2023/01/02 01:44:48;;;;;;;3.10;0.57;;;;;;;5.65;100.00;100313.50;5023809;28;20041;-53
2023/01/02 01:47:16;;;;;;;1.95;0.40;;;;;;;5.66;100.00;100315.16;5022706;28;20029;-49
2023/01/02 01:49:42;;;;;;;3.80;0.20;;;;;;;5.62;100.00;100314.63;5024286;28;20041;-49
2023/01/02 01:52:11;;;;;;;1.25;0.30;;;;;;;5.51;100.00;100327.31;5028803;28;20045;-52
2023/01/02 01:55:14;;;;;;;1.90;1.77;;;;;;;5.47;100.00;100334.66;5024135;28;20026;-49
2023/01/02 01:57:46;;;;;;;2.22;0.17;;;;;;;5.47;100.00;100335.50;5021111;28;20281;-49
2023/01/02 02:00:12;;;;;;;2.30;0.70;;;;;;;5.44;100.00;100345.50;5025273;28;20030;-47
2023/01/02 02:02:43;;;;;;;2.38;0.57;;;;;;;5.39;100.00;100351.25;5033457;28;20040;-52
2023/01/02 02:05:10;;;;;;;3.17;0.60;;;;;;;5.38;100.00;100352.25;5029548;28;20028;-49
2023/01/02 02:07:39;;;;;;;4.72;0.60;;;;;;;5.44;100.00;100356.84;5027936;28;20033;-50
2023/01/02 02:10:09;;;;;;;5.28;0.60;;;;;;;5.44;100.00;100354.22;5024551;28;20041;-50
2023/01/02 02:12:34;;;;;;;1.80;0.60;;;;;;;5.42;100.00;100353.59;5021104;28;20025;-49
2023/01/02 02:15:00;;;;;;;0.88;0.52;;;;;;;5.44;100.00;100362.09;5022688;28;20083;-52
2023/01/02 02:17:40;;;;;;;1.83;0.88;;;;;;;5.43;100.00;100370.19;5021219;28;20040;-52
2023/01/02 02:20:21;;;;;;;2.13;1.10;;;;;;;5.39;100.00;100368.84;5022164;28;20056;-52
2023/01/02 02:23:32;;;;;;;3.35;1.33;;;;;;;5.33;100.00;100372.94;5020137;28;20038;-49
2023/01/02 02:26:26;;;;;;;2.78;1.08;;;;;;;5.24;100.00;100382.59;5028129;28;20040;-50
2023/01/02 02:29:17;;;;;;;1.98;0.30;;;;;;;5.23;100.00;100383.56;5020950;28;20064;-49
2023/01/02 02:32:06;;;;;;;10.55;1.58;;;;;;;5.31;100.00;100385.41;5024429;28;20474;-50
2023/01/02 02:34:37;;;;;;;3.53;0.40;;;;;;;5.26;100.00;100387.69;5028366;28;20114;-49
2023/01/02 02:37:10;;;;;;;6.22;1.13;;;;;;;5.21;100.00;100389.97;5028153;28;20018;-49
2023/01/02 02:39:56;;;;;;;1.30;0.47;;;;;;;5.18;100.00;100391.09;5020406;28;20030;-49
2023/01/02 02:42:39;;;;;;;0.80;0.35;;;;;;;5.34;100.00;100384.28;5013778;28;20128;-50
2023/01/02 02:45:49;;;;;;;1.77;0.50;;;;;;;5.48;100.00;100378.41;5020067;28;20029;-52
2023/01/02 02:48:43;;;;;;;1.30;0.47;;;;;;;5.62;100.00;100390.91;5022059;28;20041;-51
2023/01/02 02:51:17;;;;;;;1.77;0.57;;;;;;;5.71;100.00;100396.22;5022140;28;20054;-51
2023/01/02 02:53:49;;;;;;;0.25;0.25;;;;;;;5.73;100.00;100400.34;5021603;28;20056;-50
2023/01/02 02:56:18;;;;;;;0.80;0.50;;;;;;;5.77;100.00;100401.66;5025173;28;20053;-49
2023/01/02 02:58:44;;;;;;;1.52;1.05;;;;;;;5.77;100.00;100399.03;5027193;28;20026;-50
2023/01/02 03:01:15;;;;;;;1.02;0.20;;;;;;;5.85;100.00;100398.22;5030367;28;20067;-49
2023/01/02 03:03:40;;;;;;;3.67;0.47;;;;;;;5.87;100.00;100399.69;5015576;28;20077;-52
2023/01/02 03:06:09;;;;;;;2.08;0.63;;;;;;;5.88;100.00;100395.25;5023431;28;20510;-50
2023/01/02 03:08:43;;;;;;;1.70;0.38;;;;;;;5.83;100.00;100395.72;5022548;28;20056;-49
2023/01/02 03:11:10;;;;;;;1.55;0.55;;;;;;;5.84;100.00;100400.03;5019125;28;20041;-53
2023/01/02 03:14:01;;;;;;;1.48;1.17;;;;;;;5.91;100.00;100405.44;5018608;28;20411;-48
2023/01/02 03:16:32;;;;;;;;;;;;;;;6.01;100.00;100418.50;5013690;28;20399;-51
2023/01/02 03:19:13;;;;;;;2.72;0.32;;;;;;;6.09;100.00;100410.59;5023916;28;20302;-51
2023/01/02 03:21:45;;;;;;;1.45;0.32;;;;;;;6.08;100.00;100403.69;5027354;28;20030;-51
2023/01/02 03:24:11;;;;;;;;;;;;;;;6.14;100.00;100399.59;5015130;28;20057;-51
2023/01/02 03:26:41;;;;;;;1.05;0.98;;;;;;;6.10;100.00;100414.91;5016693;28;20404;-48
2023/01/02 03:29:14;;;;;;;2.35;0.43;;;;;;;6.10;100.00;100409.63;5022897;28;20037;-51
2023/01/02 03:31:45;;;;;;;8.23;1.67;;;;;;;6.07;100.00;100407.34;5027715;28;20091;-53
2023/01/02 03:34:13;;;;;;;0.80;0.38;;;;;;;6.07;100.00;100412.59;5025896;28;20041;-51
2023/01/02 03:36:42;;;;;;;0.40;0.25;;;;;;;6.12;100.00;100410.28;5012722;28;20038;-50
2023/01/02 03:39:22;;;;;;;1.67;0.60;;;;;;;6.15;100.00;100409.97;5022716;28;21277;-50
2023/01/02 03:41:59;;;;;;;1.17;0.13;;;;;;;6.19;100.00;100418.34;5026037;28;20387;-53
2023/01/02 03:44:30;;;;;;;6.78;1.63;;;;;;;6.15;100.00;100414.41;5017239;28;20386;-50
2023/01/02 03:47:09;;;;;;;3.20;2.35;;;;;;;6.16;100.00;100416.03;5011233;28;20041;-50
2023/01/02 03:49:44;;;;;;;1.20;0.38;;;;;;;6.10;100.00;100414.91;5023631;28;20046;-50
2023/01/02 03:52:09;;;;;;;1.02;0.30;;;;;;;6.06;100.00;100416.19;5025303;28;20030;-50
2023/01/02 03:54:36;;;;;;;2.95;0.22;;;;;;;6.13;100.00;100411.94;5016267;28;20052;-48
2023/01/02 03:57:13;;;;;;;0.32;0.32;;;;;;;6.13;100.00;100421.66;5014104;28;20072;-52
2023/01/02 03:59:54;;;;;;;3.20;0.73;;;;;;;6.16;100.00;100421.31;5018220;28;20037;-49
2023/01/02 04:02:38;;;;;;;6.20;0.95;;;;;;;6.25;100.00;100418.53;5024568;28;20038;-47
2023/01/02 04:05:17;;;;;;;1.42;0.85;;;;;;;6.24;100.00;100423.94;5025069;28;20025;-48
2023/01/02 04:08:11;;;;;;;0.88;0.82;;;;;;;6.25;100.00;100422.97;5015425;28;20037;-53
2023/01/02 04:10:37;;;;;;;1.80;0.57;;;;;;;6.23;100.00;100420.50;5024820;28;20049;-53
2023/01/02 04:13:32;;;;;;;4.53;0.98;;;;;;;6.22;100.00;100434.66;5020448;28;20064;-51
2023/01/02 04:15:59;;;;;;;1.75;0.50;;;;;;;6.22;100.00;100446.97;5025998;28;20052;-48
2023/01/02 04:18:30;;;;;;;4.38;1.00;;;;;;;6.23;100.00;100440.75;5028271;28;20063;-52
2023/01/02 04:21:00;;;;;;;2.50;0.88;;;;;;;6.23;100.00;100448.63;5020872;28;20041;-52
2023/01/02 04:23:44;;;;;;;0.80;0.43;;;;;;;6.23;100.00;100435.47;5020183;28;20075;-49
2023/01/02 04:26:15;;;;;;;0.82;0.30;;;;;;;6.29;100.00;100433.00;5015807;28;20483;-50
2023/01/02 04:28:41;;;;;;;1.48;0.73;;;;;;;6.28;100.00;100431.34;5016796;28;20034;-48
2023/01/02 04:31:16;;;;;;;1.85;0.35;;;;;;;6.26;100.00;100432.50;5016658;28;20031;-50
2023/01/02 04:33:53;;;;;;;0.70;0.13;;;;;;;6.34;100.00;100435.94;5017332;28;20045;-49
2023/01/02 04:36:19;;;;;;;10.15;1.45;;;;;;;6.37;100.00;100431.34;5013577;28;20026;-52
2023/01/02 04:38:45;;;;;;;2.17;0.80;;;;;;;6.36;100.00;100435.81;5021152;28;20128;-51
2023/01/02 04:41:25;;;;;;;8.50;1.33;;;;;;;6.37;100.00;100444.53;5023551;28;20845;-50
2023/01/02 04:43:57;;;;;;;2.13;0.38;;;;;;;6.37;100.00;100445.34;5011309;28;20030;-51
2023/01/02 04:46:24;;;;;;;7.22;1.38;;;;;;;6.31;100.00;100457.34;5015435;28;20498;-49
2023/01/02 04:48:50;;;;;;;5.53;0.55;;;;;;;6.33;100.00;100455.38;5020613;28;20045;-53
2023/01/02 04:51:15;;;;;;;1.98;0.40;;;;;;;6.31;100.00;100451.28;5023075;28;20415;-52
2023/01/02 04:53:41;;;;;;;1.75;0.68;;;;;;;6.26;100.00;100454.38;5021493;28;20022;-49
2023/01/02 04:56:06;;;;;;;2.13;0.45;;;;;;;6.31;100.00;100460.00;5023686;28;20048;-50
2023/01/02 04:58:32;;;;;;;4.82;0.65;;;;;;;6.37;100.00;100463.78;5018982;28;20137;-49
2023/01/02 05:00:57;;;;;;;5.93;0.93;;;;;;;6.39;100.00;100453.09;5022479;28;20025;-51
2023/01/02 05:03:23;;;;;;;1.85;0.55;;;;;;;6.39;100.00;100467.06;5016509;28;20112;-51
2023/01/02 05:05:48;;;;;;;1.55;0.10;;;;;;;6.39;100.00;100482.06;5013316;28;20120;-50
2023/01/02 05:08:14;;;;;;;3.17;1.15;;;;;;;6.40;100.00;100492.44;5020823;28;20030;-53
2023/01/02 05:10:39;;;;;;;2.60;1.77;;;;;;;6.40;100.00;100489.81;5024546;28;20057;-48
2023/01/02 05:13:04;;;;;;;1.25;0.17;;;;;;;6.45;100.00;100502.47;5021169;28;20045;-50
2023/01/02 05:15:30;;;;;;;1.02;0.35;;;;;;;6.45;100.00;100505.09;5017496;28;20033;-47
2023/01/02 05:17:56;;;;;;;4.30;1.00;;;;;;;6.45;100.00;100508.53;5016822;28;20038;-51
2023/01/02 05:20:21;;;;;;;2.30;0.40;;;;;;;6.45;100.00;100502.47;5021785;28;20565;-49
2023/01/02 05:25:33;;;;;;;2.17;0.13;;;;;;;6.50;100.00;100516.78;5018317;28;20403;-52
2023/01/02 05:27:58;;;;;;;1.33;0.15;;;;;;;6.53;100.00;100513.84;5013141;28;20053;-49
2023/01/02 05:30:23;;;;;;;7.40;0.47;;;;;;;6.53;100.00;100505.94;5012321;28;20073;-51
2023/01/02 05:32:49;;;;;;;2.40;1.08;;;;;;;6.53;100.00;100507.72;5016747;28;20152;-47
2023/01/02 05:35:14;;;;;;;3.20;1.08;;;;;;;6.56;100.00;100507.44;5021362;28;20034;-50
2023/01/02 05:37:40;;;;;;;5.13;0.30;;;;;;;6.56;100.00;100515.34;5023666;28;20402;-51
2023/01/02 05:40:06;;;;;;;2.30;0.20;;;;;;;6.54;100.00;100514.66;5018210;28;20041;-48
2023/01/02 05:42:31;;;;;;;0.75;0.30;;;;;;;6.54;100.00;100519.94;5019717;28;20033;-49
2023/01/02 05:44:57;;;;;;;1.20;0.28;;;;;;;6.53;100.00;100532.28;5014390;28;20250;-50
2023/01/02 05:47:22;;;;;;;3.28;0.13;;;;;;;6.52;100.00;100533.25;5013763;28;20049;-48
2023/01/02 05:49:47;;;;;;;6.53;0.77;;;;;;;6.60;100.00;100534.25;5020008;28;20403;-50
2023/01/02 05:52:13;;;;;;;0.47;0.30;;;;;;;6.60;100.00;100532.44;5017855;28;20043;-49
2023/01/02 05:54:39;;;;;;;2.35;0.60;;;;;;;6.50;100.00;100542.31;5023767;28;20164;-49
2023/01/02 05:57:05;;;;;;;7.78;0.47;;;;;;;6.54;100.00;100546.28;5021277;28;20092;-50
2023/01/02 05:59:30;;;;;;;6.32;1.77;;;;;;;6.48;100.00;100557.44;5019112;28;20030;-51
2023/01/02 06:01:57;;;;;;;4.43;0.20;;;;;;;6.40;100.00;100554.81;5013101;28;20021;-48
2023/01/02 06:04:22;;;;;;;6.70;1.90;;;;;;;6.42;100.00;100560.75;5013784;28;20026;-48
2023/01/02 06:06:48;;;;;;;2.83;0.32;;;;;;;6.48;100.00;100567.97;5019923;28;20475;-51
2023/01/02 06:09:15;;;;;;;0.38;0.10;;;;;;;6.47;100.00;100572.44;5027048;28;20025;-52
2023/01/02 06:11:40;;;;;;;1.92;0.35;;;;;;;6.39;100.00;100579.50;5025440;28;20091;-50
2023/01/02 06:14:07;;;;;;;1.55;0.00;;;;;;;6.31;100.00;100575.03;5022996;28;20429;-49
2023/01/02 06:16:33;;;;;;;2.88;0.15;;;;;;;6.19;100.00;100586.84;5026636;28;20416;-49
2023/01/02 06:18:58;;;;;;;1.75;0.93;;;;;;;6.11;100.00;100588.47;5020535;28;20031;-49
2023/01/02 06:21:24;;;;;;;1.55;0.55;;;;;;;6.13;100.00;100590.94;5027084;28;20032;-51
2023/01/02 06:23:55;;;;;;;2.80;0.55;;;;;;;6.11;100.00;100598.16;5026384;28;20029;-51
2023/01/02 06:26:20;;;;;;;4.93;0.45;;;;;;;6.06;100.00;100609.16;5026268;28;20470;-49
2023/01/02 06:28:50;;;;;;;1.92;0.10;;;;;;;6.08;100.00;100619.56;5022104;28;20040;-52
2023/01/02 06:31:16;;;;;;;3.03;0.25;;;;;;;5.99;100.00;100615.22;5014904;28;20680;-48
2023/01/02 06:33:42;;;;;;;11.45;2.25;;;;;;;5.97;100.00;100615.41;5021893;28;20038;-52
2023/01/02 06:36:11;;;;;;;1.33;0.20;;;;;;;5.90;100.00;100622.25;5019516;28;20028;-49
2023/01/02 06:38:36;;;;;;;1.90;0.00;;;;;;;5.94;100.00;100626.25;5022633;28;20029;-52
2023/01/02 06:41:03;;;;;;;0.88;0.10;;;;;;;5.80;100.00;100624.16;5015855;28;20041;-47
2023/01/02 06:43:29;;;;;;;3.30;1.55;;;;;;;5.54;100.00;100629.44;5018635;28;20056;-50
2023/01/02 06:45:59;;;;;;;5.57;1.75;;;;;;;5.52;100.00;100640.09;5016318;28;20029;-50
2023/01/02 06:48:24;;;;;;;1.45;0.20;;;;;;;5.51;100.00;100648.16;5017872;28;20037;-51
2023/01/02 06:50:50;;;;;;;1.27;0.00;;;;;;;5.60;100.00;100645.44;5015166;28;20095;-47
2023/01/02 06:53:15;;;;;;;0.28;0.28;;;;;;;5.72;100.00;100639.91;5014589;28;20510;-48
2023/01/02 06:55:50;;;;;;;3.20;0.00;;;;;;;5.55;100.00;100654.75;5012165;28;20056;-47
2023/01/02 06:58:16;;;;;;;0.63;0.10;;;;;;;5.37;100.00;100647.72;5019534;28;20021;-51
2023/01/02 07:00:41;;;;;;;2.25;1.85;;;;;;;5.31;100.00;100658.03;5026005;28;20461;-53
2023/01/02 07:03:06;;;;;;;2.90;0.00;;;;;;;5.18;100.00;100650.53;5013352;28;20408;-49
2023/01/02 07:05:32;;;;;;;0.40;0.17;;;;;;;5.15;100.00;100662.16;5013948;28;20025;-50
2023/01/02 07:07:57;;;;;;;0.00;0.00;;;;;;;5.11;100.00;100667.88;5017951;28;20056;-50
2023/01/02 07:10:22;;;;;;;0.60;0.20;;;;;;;5.08;100.00;100668.19;5016160;28;20034;-47
2023/01/02 07:12:48;;;;;;;0.32;0.32;;;;;;;4.93;100.00;100670.50;5015540;28;20497;-52
2023/01/02 07:15:13;;;;;;;1.80;0.40;;;;;;;4.77;100.00;100671.16;5014525;28;20033;-51
2023/01/02 07:17:38;;;;;;;4.60;0.30;;;;;;;4.75;100.00;100678.34;5016878;28;20119;-50
2023/01/02 07:20:04;;;;;;;1.17;0.10;;;;;;;4.71;100.00;100677.03;5015185;28;20029;-48
2023/01/02 07:22:30;;;;;;;0.52;0.20;;;;;;;4.65;100.00;100677.63;5015483;28;20063;-50
2023/01/02 07:24:55;;;;;;;0.50;0.10;;;;;;;4.58;100.00;100682.63;5016540;28;20048;-51
2023/01/02 07:27:20;;;;;;;0.20;0.00;;;;;;;4.37;100.00;100680.25;5016792;28;20368;-52
2023/01/02 07:29:46;;;;;;;1.40;0.70;;;;;;;4.25;100.00;100691.91;5011507;28;20033;-51
2023/01/02 07:32:11;;;;;;;0.20;0.20;;;;;;;4.05;100.00;100692.00;5022949;28;20029;-51
2023/01/02 07:34:36;;;;;;;0.63;0.10;;;;;;;3.95;100.00;100693.81;5015951;28;20025;-51
2023/01/02 07:37:02;;;;;;;4.10;0.35;;;;;;;3.87;100.00;100685.81;5020083;28;20034;-47
2023/01/02 07:39:27;;;;;;;0.75;0.00;;;;;;;3.76;100.00;100686.00;5016123;28;20025;-49
2023/01/02 07:41:52;;;;;;;0.00;0.00;;;;;;;3.68;100.00;100690.13;5016287;28;20325;-48
2023/01/02 07:44:18;;;;;;;0.85;0.00;;;;;;;3.64;100.00;100686.16;5012400;28;20033;-51
2023/01/02 07:46:43;;;;;;;0.45;0.28;;;;;;;3.55;100.00;100692.22;5014267;28;20038;-48
2023/01/02 07:49:11;;;;;;;0.47;0.17;;;;;;;3.48;100.00;100704.25;5015884;28;20038;-52
2023/01/02 07:51:37;;;;;;;2.30;0.10;;;;;;;3.41;100.00;100709.22;5023121;28;20041;-55
2023/01/02 07:54:02;;;;;;;0.43;0.10;;;;;;;3.35;100.00;100714.19;5020548;28;20040;-52
2023/01/02 07:56:28;;;;;;;0.30;0.10;;;;;;;3.30;100.00;100722.47;5017965;28;20358;-47
2023/01/02 07:58:53;;;;;;;0.55;0.00;;;;;;;3.23;100.00;100727.44;5015695;28;20021;-51
2023/01/02 08:01:18;;;;;;;0.77;0.20;;;;;;;3.19;100.00;100722.59;5019844;28;20038;-50
2023/01/02 08:03:44;;;;;;;0.30;0.00;;;;;;;3.13;100.00;100721.38;5026493;28;20134;-48
2023/01/02 08:06:14;;;;;;;0.10;0.10;;;;;;;2.99;100.00;100735.66;5018314;28;20040;-48
2023/01/02 08:08:40;;;;;;;0.10;0.00;;;;;;;2.92;100.00;100741.56;5023606;28;20130;-51
2023/01/02 08:11:11;;;;;;;0.80;0.05;;;;;;;2.88;100.00;100743.66;5016560;28;20076;-49
2023/01/02 08:13:37;;;;;;;0.00;0.00;;;;;;;2.83;100.00;100746.66;5021344;28;20526;-49
2023/01/02 08:16:04;;;;;;;0.03;0.00;;;;;;;2.95;100.00;100759.66;5018685;28;20060;-50
2023/01/02 08:18:29;;;;;;;1.20;0.88;;;;;;;3.19;100.00;100781.06;5027135;28;20041;-48
2023/01/02 08:20:54;;;;;;;3.38;0.08;;;;;;;3.56;100.00;100780.41;5006735;28;20041;-50
2023/01/02 08:23:20;;;;;;;0.20;0.00;;;;;;;3.53;100.00;100790.34;5017675;28;20026;-48
2023/01/02 08:25:45;;;;;;;0.15;0.05;;;;;;;3.42;100.00;100793.94;5009674;28;20029;-49
2023/01/02 08:28:10;;;;;;;0.10;0.00;;;;;;;3.37;100.00;100799.59;5008858;28;20026;-48
2023/01/02 08:30:39;;;;;;;0.25;0.10;;;;;;;3.38;100.00;100803.03;5006819;28;20021;-51
2023/01/02 08:33:04;;;;;;;1.58;0.05;;;;;;;3.32;100.00;100811.44;5007125;28;20396;-52
2023/01/02 08:35:30;;;;;;;0.60;0.60;;;;;;;3.21;100.00;100810.59;5013657;28;20030;-53
2023/01/02 08:37:55;;;;;;;1.83;0.30;;;;;;;3.21;100.00;100821.06;5014402;28;20029;-51
2023/01/02 08:40:21;;;;;;;0.82;0.20;;;;;;;3.20;100.00;100824.69;5008610;28;20061;-52
2023/01/02 08:42:46;;;;;;;0.75;0.10;;;;;;;3.14;100.00;100824.38;5020084;28;20052;-48
2023/01/02 08:45:11;;;;;;;0.63;0.10;;;;;;;3.11;100.00;100825.47;5014078;28;20049;-53
2023/01/02 08:47:37;;;;;;;0.70;0.68;;;;;;;3.09;100.00;100830.00;5023800;28;20104;-48
2023/01/02 08:50:02;;;;;;;0.10;0.08;;;;;;;3.04;100.00;100837.44;5014562;28;20072;-50
2023/01/02 08:52:28;;;;;;;0.65;0.30;;;;;;;3.10;100.00;100836.91;5024163;28;20072;-52
2023/01/02 08:54:53;;;;;;;0.52;0.03;;;;;;;3.05;100.00;100842.56;5016071;28;20029;-48
2023/01/02 08:57:18;;;;;;;0.50;0.20;;;;;;;3.07;100.00;100839.78;5017780;28;20029;-49
2023/01/02 08:59:44;;;;;;;0.10;0.10;;;;;;;3.11;100.00;100848.22;5022052;28;20038;-52
2023/01/02 09:02:18;;;;;;;15.70;0.60;;;;;;;3.09;100.00;100848.34;5015145;28;20038;-49
2023/01/02 09:04:43;;;;;;;2.25;0.73;;;;;;;3.08;100.00;100856.34;5018223;28;20021;-52
2023/01/02 09:07:09;;;;;;;3.05;0.00;;;;;;;3.15;100.00;100863.56;5013160;28;20590;-49
2023/01/02 09:09:34;;;;;;;0.65;0.10;;;;;;;3.19;100.00;100880.66;5018252;28;20065;-47
2023/01/02 09:11:59;;;;;;;2.95;0.00;;;;;;;3.16;100.00;100878.31;5019443;28;20497;-51
2023/01/02 09:14:25;;;;;;;0.35;0.05;;;;;;;3.15;100.00;100881.91;5019630;28;20041;-48
2023/01/02 09:16:51;;;;;;;1.75;0.10;;;;;;;3.25;100.00;100898.47;5019171;28;20026;-54
2023/01/02 09:19:17;;;;;;;0.60;0.10;;;;;;;3.25;100.00;100898.47;5024272;28;20021;-51
2023/01/02 09:21:43;;;;;;;0.03;0.03;;;;;;;3.34;100.00;100906.50;5020461;28;20025;-49
2023/01/02 09:24:08;;;;;;;0.03;0.00;;;;;;;3.39;100.00;100913.00;5020478;28;20045;-51
2023/01/02 09:26:36;;;;;;;1.00;0.32;;;;;;;3.38;100.00;100920.97;5021971;28;20059;-48
2023/01/02 09:29:02;;;;;;;0.30;0.22;;;;;;;3.48;100.00;100929.72;5022209;28;20445;-48
2023/01/02 09:31:28;;;;;;;0.30;0.15;;;;;;;3.57;100.00;100933.34;5020122;28;20041;-49
2023/01/02 09:33:54;;;;;;;2.28;0.17;;;;;;;3.61;100.00;100927.66;5016345;28;20510;-51
2023/01/02 09:36:20;;;;;;;0.40;0.17;;;;;;;3.63;100.00;100940.66;5017231;28;20064;-47
2023/01/02 09:38:51;;;;;;;0.30;0.10;;;;;;;3.60;100.00;100938.31;5020742;28;20040;-50
2023/01/02 09:41:41;;;;;;;0.25;0.03;;;;;;;3.58;100.00;100945.47;5019251;28;20024;-50
2023/01/02 09:44:24;;;;;;;0.10;0.10;;;;;;;3.59;100.00;100960.22;5013571;28;20030;-50
2023/01/02 09:47:00;;;;;;;0.63;0.28;;;;;;;3.56;100.00;100963.94;5016348;28;20079;-51
2023/01/02 09:49:40;;;;;;;0.35;0.00;;;;;;;3.59;100.00;100979.44;5015857;28;20103;-47
2023/01/02 09:52:07;;;;;;;1.27;0.32;;;;;;;3.51;100.00;100971.38;5026289;28;20565;-49
2023/01/02 09:54:33;;;;;;;0.43;0.15;;;;;;;3.42;100.00;100987.94;5022523;28;20124;-48
2023/01/02 09:57:22;;;;;;;0.63;0.22;;;;;;;3.40;100.00;100988.03;5020434;28;20120;-51
2023/01/02 09:59:53;;;;;;;3.70;1.05;;;;;;;3.48;100.00;100997.88;5025922;28;20068;-51
2023/01/02 10:02:42;;;;;;;0.57;0.15;;;;;;;3.62;100.00;101002.78;5027531;28;20045;-47
2023/01/02 10:05:47;;;;;;;0.90;0.10;;;;;;;3.72;100.00;101001.00;5022766;28;20491;-49
2023/01/02 10:08:24;;;;;;;1.00;0.00;;;;;;;3.81;100.00;101001.97;5017436;28;20036;-48
2023/01/02 10:11:18;;;;;;;0.40;0.20;;;;;;;3.99;100.00;101012.66;5020153;28;20475;-52
2023/01/02 10:13:59;;;;;;;4.28;0.28;;;;;;;4.16;100.00;101019.06;5015867;28;20033;-49
2023/01/02 10:16:30;;;;;;;1.08;0.10;;;;;;;4.32;100.00;101021.16;5016065;28;20033;-48
2023/01/02 10:19:00;;;;;;;2.25;0.00;;;;;;;4.54;100.00;101027.91;5017148;28;20095;-50
2023/01/02 10:21:31;;;;;;;1.15;0.20;;;;;;;4.75;100.00;101033.00;5017251;28;20554;-51
2023/01/02 10:24:06;;;;;;;1.10;0.20;;;;;;;4.89;100.00;101040.47;5018423;28;20061;-50
2023/01/02 10:26:35;;;;;;;1.08;0.00;;;;;;;4.98;100.00;101042.28;5023230;28;20083;-50
2023/01/02 10:29:30;;;;;;;1.88;0.10;;;;;;;5.05;100.00;101045.16;5021300;28;20053;-51
2023/01/02 10:31:59;;;;;;;0.50;0.25;;;;;;;5.20;100.00;101043.75;5022999;28;20026;-48
2023/01/02 10:34:36;;;;;;;0.80;0.32;;;;;;;5.31;100.00;101042.72;5021216;28;20033;-49
2023/01/02 10:37:01;;;;;;;0.20;0.20;;;;;;;5.41;100.00;101043.53;5024032;28;20036;-49
2023/01/02 10:39:31;;;;;;;5.03;1.35;;;;;;;5.48;100.00;101043.81;5020546;28;20383;-49
2023/01/02 10:41:58;;;;;;;0.77;0.20;;;;;;;5.55;100.00;101051.94;5015920;28;20060;-48
2023/01/02 10:44:35;;;;;;;0.43;0.17;;;;;;;5.67;100.00;101046.34;5016643;28;20041;-47
2023/01/02 10:47:20;;;;;;;4.38;0.43;;;;;;;5.79;100.00;101046.19;5018720;28;20037;-50
2023/01/02 10:49:46;;;;;;;0.45;0.45;;;;;;;5.81;100.00;101039.78;5015465;28;20054;-48
2023/01/02 10:52:20;;;;;;;2.50;0.20;;;;;;;5.94;100.00;101050.00;5018176;28;20028;-49
2023/01/02 10:54:54;;;;;;;2.83;0.40;;;;;;;6.04;100.00;101047.28;5019135;28;20526;-49
2023/01/02 10:57:39;;;;;;;1.13;0.22;;;;;;;6.10;100.00;101044.91;5016278;28;20398;-48
2023/01/02 11:00:07;;;;;;;2.90;0.00;;;;;;;6.15;100.00;101041.84;5021543;28;20056;-50
2023/01/02 11:02:39;;;;;;;1.17;0.20;;;;;;;6.14;100.00;101039.34;5018534;28;20046;-48
2023/01/02 11:05:16;;;;;;;0.35;0.20;;;;;;;6.23;100.00;101022.66;5020041;28;20030;-48
2023/01/02 11:07:46;;;;;;;4.95;0.30;;;;;;;6.33;100.00;101015.53;5019936;28;20449;-50
2023/01/02 11:10:23;;;;;;;1.55;0.10;;;;;;;6.40;100.00;101005.19;5018544;28;20067;-49
2023/01/02 11:12:49;;;;;;;3.72;0.25;;;;;;;6.50;100.00;101000.69;5021232;28;20036;-48
2023/01/02 11:15:24;;;;;;;1.13;0.45;;;;;;;6.63;100.00;101000.28;5028084;28;20017;-47
2023/01/02 11:17:49;;;;;;;0.00;0.00;;;;;;;6.67;100.00;101004.28;5024985;28;20061;-50
2023/01/02 11:20:49;;;;;;;5.10;0.20;;;;;;;6.72;100.00;100980.94;5025319;28;20024;-47
2023/01/02 11:23:15;;;;;;;0.20;0.00;;;;;;;6.72;100.00;100973.88;5022404;28;20478;-46
2023/01/02 11:25:42;;;;;;;0.17;0.03;;;;;;;6.83;100.00;100971.97;5017037;28;20553;-48
2023/01/02 11:28:17;;;;;;;3.15;0.10;;;;;;;6.81;100.00;100981.81;5021735;28;20021;-48
2023/01/02 11:30:45;;;;;;;0.60;0.10;;;;;;;6.61;100.00;100986.44;5014606;28;20487;-50
2023/01/02 11:33:13;;;;;;;1.85;0.10;;;;;;;6.62;100.00;100986.31;5017218;28;20095;-49
2023/01/02 11:35:44;;;;;;;0.80;0.10;;;;;;;6.57;100.00;100999.09;5017837;28;20071;-49
2023/01/02 11:38:15;;;;;;;3.50;0.20;;;;;;;6.60;100.00;100995.34;5016365;28;20053;-48
2023/01/02 11:40:59;;;;;;;0.28;0.00;;;;;;;6.48;100.00;100978.94;5016502;28;20491;-51